Hanseatic Scout — V2BM2 — position and weather

sailwx.info

Track history (hours):
 
Tides and Currents Weather Stations Pressure Air Temp Water Temp Dewpoint Dewpoint Depression Visibility Wind Speed Wind Dir Waves Ship Positions

Hanseatic Scout

Last reported at 2016-Aug-29 06:30 UTC. Time now 2016-Aug-29 07:08 UTC.
Position N 37°57' W 000°15'.

Length 89 m; draft 6.3 m.

Type: Ship. MMSI: 304867000.

Date/timePositionNaut miles runAvg speedWind from/ knotsBaromVisibWave heightAir tempDewpointWater temp
2016-Aug-29 06:30N 37°57' W 000°15'1110.0
2016-Aug-29 05:23N 38°07' W 000°07'18 9.8
2016-Aug-29 03:33N 38°22' E 000°06'2210.4
2016-Aug-29 01:27N 38°40' E 000°20'1110.2
2016-Aug-29 00:20N 38°49' E 000°29'810.2
2016-Aug-28 23:33N 38°56' E 000°35'41 9.8
2016-Aug-28 19:21N 39°28' E 001°08'1810.2
2016-Aug-28 17:33N 39°43' E 001°22'10 9.8
2016-Aug-28 16:33N 39°51' E 001°30'1010.1
2016-Aug-28 15:33N 39°59' E 001°38'10 9.9
2016-Aug-28 14:33N 40°07' E 001°46'10 9.9
2016-Aug-28 13:33N 40°15' E 001°54'1010.1
2016-Aug-28 12:33N 40°22' E 002°02'14 9.8
2016-Aug-28 11:07N 40°34' E 002°13'7810.2
2016-Aug-28 03:29N 41°35' E 003°16'6310.6
2016-Aug-27 21:30N 42°25' E 004°09'1010.5
2016-Aug-27 20:33N 42°33' E 004°18'1110.9
2016-Aug-27 19:33N 42°41' E 004°27'1110.9
2016-Aug-27 18:32N 42°50' E 004°36'1010.3
2016-Aug-27 17:33N 42°58' E 004°45'1010.3
2016-Aug-27 16:33N 43°06' E 004°54'9 9.4
2016-Aug-27 15:33N 43°14' E 005°00'10 9.5
2016-Aug-27 14:33N 43°23' E 004°56'3 3.4
2016-Aug-27 13:33N 43°26' E 004°53'0 0.0
2016-Aug-27 12:33N 43°26' E 004°53'0 0.0
2016-Aug-27 11:30N 43°26' E 004°53'0 0.0
2016-Aug-27 10:27N 43°26' E 004°53'0 0.0
2016-Aug-27 09:33N 43°26' E 004°53'0 0.0
2016-Aug-27 08:33N 43°26' E 004°53'0 0.0
2016-Aug-27 07:27N 43°26' E 004°53'0 0.0
2016-Aug-27 06:30N 43°26' E 004°53'0 0.0
2016-Aug-27 04:33N 43°26' E 004°53'0 0.0
2016-Aug-27 03:33N 43°26' E 004°53'0 0.0
2016-Aug-27 02:33N 43°26' E 004°53'0 0.0
2016-Aug-27 01:33N 43°26' E 004°53'0 0.0
2016-Aug-27 00:33N 43°26' E 004°53'0 0.0
2016-Aug-26 23:33N 43°26' E 004°53'0 0.0
2016-Aug-26 22:33N 43°26' E 004°53'0 0.0
2016-Aug-26 21:33N 43°26' E 004°53'0 0.0
2016-Aug-26 20:33N 43°26' E 004°53'0 0.0
2016-Aug-26 19:30N 43°26' E 004°53'0 0.0
2016-Aug-26 18:33N 43°26' E 004°53'0 0.0
2016-Aug-26 17:33N 43°26' E 004°53'0 0.0
2016-Aug-26 16:33N 43°26' E 004°53'0 0.0
2016-Aug-26 15:33N 43°26' E 004°53'0 0.0
2016-Aug-26 14:33N 43°26' E 004°53'0 0.0
2016-Aug-26 13:33N 43°26' E 004°53'0 0.0
2016-Aug-26 12:33N 43°26' E 004°53'0 0.0
2016-Aug-26 11:33N 43°26' E 004°53'0 0.0
2016-Aug-26 10:33N 43°26' E 004°53'0 0.0
2016-Aug-26 09:33N 43°26' E 004°53'0 0.0
2016-Aug-26 08:33N 43°26' E 004°53'0 0.0
2016-Aug-26 07:30N 43°26' E 004°53'0 0.0
2016-Aug-26 06:33N 43°26' E 004°53'0 0.0
2016-Aug-26 04:33N 43°26' E 004°53'0 0.0
2016-Aug-26 03:30N 43°26' E 004°53'0 0.0
2016-Aug-26 02:33N 43°26' E 004°53'0 0.0
2016-Aug-26 01:33N 43°26' E 004°53'0 0.0
2016-Aug-26 00:33N 43°26' E 004°53'0 0.0
2016-Aug-25 23:33N 43°26' E 004°53'0 0.0
2016-Aug-25 22:33N 43°26' E 004°53'0 0.0
2016-Aug-25 21:33N 43°26' E 004°53'0 0.0
2016-Aug-25 20:30N 43°26' E 004°53'0 0.0
2016-Aug-25 19:33N 43°26' E 004°53'0 0.0
2016-Aug-25 18:33N 43°26' E 004°53'0 0.0
2016-Aug-25 17:33N 43°26' E 004°53'0 0.0
2016-Aug-25 16:33N 43°26' E 004°53'0 0.0
2016-Aug-25 15:33N 43°26' E 004°53'0 0.0
2016-Aug-25 14:27N 43°26' E 004°53'0 0.2
2016-Aug-25 13:33N 43°25' E 004°53'2 2.0
2016-Aug-25 12:33N 43°25' E 004°56'0 0.0
2016-Aug-25 11:33N 43°25' E 004°56'0 0.0
2016-Aug-25 10:24N 43°25' E 004°56'0 0.0
2016-Aug-25 09:30N 43°25' E 004°56'0 0.1
2016-Aug-25 08:33N 43°25' E 004°56'0 0.0
2016-Aug-25 07:33N 43°25' E 004°56'0 0.0
2016-Aug-25 06:31N 43°25' E 004°56'0 0.0
2016-Aug-25 04:31N 43°25' E 004°56'0 0.0
2016-Aug-25 03:31N 43°25' E 004°56'0 0.0
2016-Aug-25 02:31N 43°25' E 004°56'0 0.0
2016-Aug-25 01:31N 43°25' E 004°56'0 0.0
2016-Aug-25 00:31N 43°25' E 004°56'0 0.0
2016-Aug-24 23:31N 43°25' E 004°56'0 0.0
2016-Aug-24 22:31N 43°25' E 004°56'0 0.0
2016-Aug-24 21:28N 43°25' E 004°56'0 0.0
2016-Aug-24 20:31N 43°25' E 004°56'0 0.0
2016-Aug-24 19:31N 43°25' E 004°56'0 0.0
2016-Aug-24 18:31N 43°25' E 004°56'0 0.0
2016-Aug-24 17:28N 43°25' E 004°56'0 0.0
2016-Aug-24 16:28N 43°25' E 004°56'0 0.0
2016-Aug-24 15:31N 43°25' E 004°56'0 0.0
2016-Aug-24 14:31N 43°25' E 004°56'0 0.0
2016-Aug-24 13:25N 43°25' E 004°56'0 0.0
2016-Aug-24 12:31N 43°25' E 004°56'0 0.0
2016-Aug-24 11:31N 43°25' E 004°56'0 0.0
2016-Aug-24 10:31N 43°25' E 004°56'0 0.0
2016-Aug-24 09:31N 43°25' E 004°56'0 0.1
2016-Aug-24 08:28N 43°25' E 004°56'0 0.0
2016-Aug-24 07:31N 43°25' E 004°56'0 0.0
2016-Aug-24 06:31N 43°25' E 004°56'0 0.0
2016-Aug-24 04:31N 43°25' E 004°56'0 0.0
2016-Aug-24 03:31N 43°25' E 004°56'0 0.0
2016-Aug-24 02:31N 43°25' E 004°56'0 0.0
2016-Aug-24 01:31N 43°25' E 004°56'0 0.0
2016-Aug-24 00:31N 43°25' E 004°56'0 0.0
2016-Aug-23 23:28N 43°25' E 004°56'0 0.0
2016-Aug-23 22:31N 43°25' E 004°56'0 0.0
2016-Aug-23 21:31N 43°25' E 004°56'0 0.0
2016-Aug-23 20:31N 43°25' E 004°56'0 0.1
2016-Aug-23 19:33N 43°25' E 004°56'0 0.3
2016-Aug-23 18:33N 43°25' E 004°56'4 3.5
2016-Aug-23 17:33N 43°24' E 005°01'0 0.0
2016-Aug-23 16:34N 43°24' E 005°01'0 0.0
2016-Aug-23 15:33N 43°24' E 005°01'0 0.0
2016-Aug-23 14:33N 43°24' E 005°01'0 0.0
2016-Aug-23 13:33N 43°24' E 005°01'0 0.0
2016-Aug-23 12:33N 43°24' E 005°01'0 0.0
2016-Aug-23 11:33N 43°24' E 005°01'0 0.0
2016-Aug-23 10:34N 43°24' E 005°01'0 0.0
2016-Aug-23 09:34N 43°24' E 005°01'0 0.0
2016-Aug-23 08:33N 43°24' E 005°01'0 0.0
2016-Aug-23 07:33N 43°24' E 005°01'0 0.0
2016-Aug-23 06:33N 43°24' E 005°01'0 0.0
2016-Aug-23 05:33N 43°24' E 005°01'0 0.0
2016-Aug-23 04:33N 43°24' E 005°01'0 0.0
2016-Aug-23 03:33N 43°24' E 005°01'0 0.0
2016-Aug-23 02:33N 43°24' E 005°01'0 0.0
2016-Aug-23 01:34N 43°24' E 005°01'0 0.0
2016-Aug-23 00:33N 43°24' E 005°01'0 0.0
2016-Aug-22 23:33N 43°24' E 005°01'0 0.0
2016-Aug-22 22:34N 43°24' E 005°01'0 0.0
2016-Aug-22 21:33N 43°24' E 005°01'0 0.0
2016-Aug-22 20:34N 43°24' E 005°01'0 0.0
2016-Aug-22 19:33N 43°24' E 005°01'0 0.0
2016-Aug-22 18:34N 43°24' E 005°01'0 0.0
2016-Aug-22 17:33N 43°24' E 005°01'0 0.0
2016-Aug-22 16:33N 43°24' E 005°01'0 0.0
2016-Aug-22 15:33N 43°24' E 005°01'0 0.0
2016-Aug-22 14:33N 43°24' E 005°01'0 0.0
2016-Aug-22 13:34N 43°24' E 005°01'0 0.0
2016-Aug-22 12:33N 43°24' E 005°01'0 0.0
2016-Aug-22 11:33N 43°24' E 005°01'0 0.0
2016-Aug-22 10:33N 43°24' E 005°01'0 0.0
2016-Aug-22 09:33N 43°24' E 005°01'0 0.0
2016-Aug-22 08:33N 43°24' E 005°01'0 0.0
2016-Aug-22 07:33N 43°24' E 005°01'0 0.0
2016-Aug-22 06:33N 43°24' E 005°01'0 0.0
2016-Aug-22 05:33N 43°24' E 005°01'0 0.0
2016-Aug-22 04:33N 43°24' E 005°01'0 0.0
2016-Aug-22 03:33N 43°24' E 005°01'0 0.0
2016-Aug-22 02:33N 43°24' E 005°01'0 0.0
2016-Aug-22 01:33N 43°24' E 005°01'0 0.0
2016-Aug-22 00:33N 43°24' E 005°01'0 0.0
2016-Aug-21 23:34N 43°24' E 005°01'0 0.0
2016-Aug-21 22:33N 43°24' E 005°01'0 0.0
2016-Aug-21 21:33N 43°24' E 005°01'0 0.0
2016-Aug-21 20:33N 43°24' E 005°01'0 0.0
2016-Aug-21 19:34N 43°24' E 005°01'0 0.0
2016-Aug-21 18:34N 43°24' E 005°01'0 0.0
2016-Aug-21 17:34N 43°24' E 005°01'0 0.0
2016-Aug-21 16:33N 43°24' E 005°01'0 0.0
2016-Aug-21 15:33N 43°24' E 005°01'0 0.0
2016-Aug-21 14:33N 43°24' E 005°01'0 0.0
2016-Aug-21 13:33N 43°24' E 005°01'0 0.0
2016-Aug-21 12:33N 43°24' E 005°01'0 0.0
2016-Aug-21 11:33N 43°24' E 005°01'0 0.0
2016-Aug-21 10:33N 43°24' E 005°01'0 0.0
2016-Aug-21 09:33N 43°24' E 005°01'0 0.0
2016-Aug-21 08:34N 43°24' E 005°01'0 0.0
2016-Aug-21 07:33N 43°24' E 005°01'0 0.0
2016-Aug-21 06:34N 43°24' E 005°01'0 0.0
2016-Aug-21 05:33N 43°24' E 005°01'0 0.0
2016-Aug-21 04:33N 43°24' E 005°01'0 0.0
2016-Aug-21 03:33N 43°24' E 005°01'0 0.0
2016-Aug-21 02:33N 43°24' E 005°01'0 0.0
2016-Aug-21 01:34N 43°24' E 005°01'0 0.0
2016-Aug-21 00:33N 43°24' E 005°01'0 0.0
2016-Aug-20 23:34N 43°24' E 005°01'0 0.0
2016-Aug-20 22:33N 43°24' E 005°01'0 0.0
2016-Aug-20 21:34N 43°24' E 005°01'0 0.0
2016-Aug-20 20:33N 43°24' E 005°01'0 0.0
2016-Aug-20 19:33N 43°24' E 005°01'0 0.0
2016-Aug-20 18:33N 43°24' E 005°01'0 0.0
2016-Aug-20 17:33N 43°24' E 005°01'0 0.0
2016-Aug-20 16:33N 43°24' E 005°01'0 0.0
2016-Aug-20 15:33N 43°24' E 005°01'0 0.0
2016-Aug-20 14:33N 43°24' E 005°01'0 0.0
2016-Aug-20 13:33N 43°24' E 005°01'0 0.0
2016-Aug-20 12:33N 43°24' E 005°01'0 0.0
2016-Aug-20 11:34N 43°24' E 005°01'0 0.0
2016-Aug-20 10:34N 43°24' E 005°01'0 0.0
2016-Aug-20 09:33N 43°24' E 005°01'0 0.0
2016-Aug-20 08:34N 43°24' E 005°01'0 0.0
2016-Aug-20 07:34N 43°24' E 005°01'0 0.0
2016-Aug-20 06:33N 43°24' E 005°01'0 0.0
2016-Aug-20 05:33N 43°24' E 005°01'0 0.0
2016-Aug-20 04:34N 43°24' E 005°01'0 0.0
2016-Aug-20 03:33N 43°24' E 005°01'0 0.0
2016-Aug-20 02:33N 43°24' E 005°01'0 0.0
2016-Aug-20 01:33N 43°24' E 005°01'0 0.0
2016-Aug-20 00:34N 43°24' E 005°01'0 0.0
2016-Aug-19 23:33N 43°24' E 005°01'0 0.0
2016-Aug-19 22:33N 43°24' E 005°01'0 0.0
2016-Aug-19 21:33N 43°24' E 005°01'5 4.6
2016-Aug-19 20:34N 43°20' E 004°59'9 8.9
2016-Aug-19 19:33N 43°11' E 005°03'1111.2
2016-Aug-19 18:33N 43°02' E 004°53'1111.1
2016-Aug-19 17:33N 42°54' E 004°44'2211.1
2016-Aug-19 15:33N 42°36' E 004°26'1210.2
2016-Aug-19 14:21N 42°26' E 004°16'810.0
2016-Aug-19 13:33N 42°20' E 004°09'1010.1
2016-Aug-19 12:33N 42°11' E 004°02'4210.3
2016-Aug-19 08:31N 41°38' E 003°28'10 9.9
2016-Aug-19 07:33N 41°30' E 003°21'10 9.9
2016-Aug-19 06:33N 41°22' E 003°13'  
Track history (hours):
 
Tides and Currents Weather Stations Pressure Air Temp Water Temp Dewpoint Dewpoint Depression Visibility Wind Speed Wind Dir Waves Ship Positions

Hanseatic Scout

Last reported at 2016-Aug-29 06:30 UTC. Time now 2016-Aug-29 07:08 UTC.
Position N 37°57' W 000°15'.

Length 89 m; draft 6.3 m.

Type: Ship. MMSI: 304867000.

Date/timePositionNaut miles runAvg speedWind from/ knotsBaromVisibWave heightAir tempDewpointWater temp
2016-Aug-29 06:30N 37°57' W 000°15'1110.0
2016-Aug-29 05:23N 38°07' W 000°07'18 9.8
2016-Aug-29 03:33N 38°22' E 000°06'2210.4
2016-Aug-29 01:27N 38°40' E 000°20'1110.2
2016-Aug-29 00:20N 38°49' E 000°29'810.2
2016-Aug-28 23:33N 38°56' E 000°35'41 9.8
2016-Aug-28 19:21N 39°28' E 001°08'1810.2
2016-Aug-28 17:33N 39°43' E 001°22'10 9.8
2016-Aug-28 16:33N 39°51' E 001°30'1010.1
2016-Aug-28 15:33N 39°59' E 001°38'10 9.9
2016-Aug-28 14:33N 40°07' E 001°46'10 9.9
2016-Aug-28 13:33N 40°15' E 001°54'1010.1
2016-Aug-28 12:33N 40°22' E 002°02'14 9.8
2016-Aug-28 11:07N 40°34' E 002°13'7810.2
2016-Aug-28 03:29N 41°35' E 003°16'6310.6
2016-Aug-27 21:30N 42°25' E 004°09'1010.5
2016-Aug-27 20:33N 42°33' E 004°18'1110.9
2016-Aug-27 19:33N 42°41' E 004°27'1110.9
2016-Aug-27 18:32N 42°50' E 004°36'1010.3
2016-Aug-27 17:33N 42°58' E 004°45'1010.3
2016-Aug-27 16:33N 43°06' E 004°54'9 9.4
2016-Aug-27 15:33N 43°14' E 005°00'10 9.5
2016-Aug-27 14:33N 43°23' E 004°56'3 3.4
2016-Aug-27 13:33N 43°26' E 004°53'0 0.0
2016-Aug-27 12:33N 43°26' E 004°53'0 0.0
2016-Aug-27 11:30N 43°26' E 004°53'0 0.0
2016-Aug-27 10:27N 43°26' E 004°53'0 0.0
2016-Aug-27 09:33N 43°26' E 004°53'0 0.0
2016-Aug-27 08:33N 43°26' E 004°53'0 0.0
2016-Aug-27 07:27N 43°26' E 004°53'0 0.0
2016-Aug-27 06:30N 43°26' E 004°53'0 0.0
2016-Aug-27 04:33N 43°26' E 004°53'0 0.0
2016-Aug-27 03:33N 43°26' E 004°53'0 0.0
2016-Aug-27 02:33N 43°26' E 004°53'0 0.0
2016-Aug-27 01:33N 43°26' E 004°53'0 0.0
2016-Aug-27 00:33N 43°26' E 004°53'0 0.0
2016-Aug-26 23:33N 43°26' E 004°53'0 0.0
2016-Aug-26 22:33N 43°26' E 004°53'0 0.0
2016-Aug-26 21:33N 43°26' E 004°53'0 0.0
2016-Aug-26 20:33N 43°26' E 004°53'0 0.0
2016-Aug-26 19:30N 43°26' E 004°53'0 0.0
2016-Aug-26 18:33N 43°26' E 004°53'0 0.0
2016-Aug-26 17:33N 43°26' E 004°53'0 0.0
2016-Aug-26 16:33N 43°26' E 004°53'0 0.0
2016-Aug-26 15:33N 43°26' E 004°53'0 0.0
2016-Aug-26 14:33N 43°26' E 004°53'0 0.0
2016-Aug-26 13:33N 43°26' E 004°53'0 0.0
2016-Aug-26 12:33N 43°26' E 004°53'0 0.0
2016-Aug-26 11:33N 43°26' E 004°53'0 0.0
2016-Aug-26 10:33N 43°26' E 004°53'0 0.0
2016-Aug-26 09:33N 43°26' E 004°53'0 0.0
2016-Aug-26 08:33N 43°26' E 004°53'0 0.0
2016-Aug-26 07:30N 43°26' E 004°53'0 0.0
2016-Aug-26 06:33N 43°26' E 004°53'0 0.0
2016-Aug-26 04:33N 43°26' E 004°53'0 0.0
2016-Aug-26 03:30N 43°26' E 004°53'0 0.0
2016-Aug-26 02:33N 43°26' E 004°53'0 0.0
2016-Aug-26 01:33N 43°26' E 004°53'0 0.0
2016-Aug-26 00:33N 43°26' E 004°53'0 0.0
2016-Aug-25 23:33N 43°26' E 004°53'0 0.0
2016-Aug-25 22:33N 43°26' E 004°53'0 0.0
2016-Aug-25 21:33N 43°26' E 004°53'0 0.0
2016-Aug-25 20:30N 43°26' E 004°53'0 0.0
2016-Aug-25 19:33N 43°26' E 004°53'0 0.0
2016-Aug-25 18:33N 43°26' E 004°53'0 0.0
2016-Aug-25 17:33N 43°26' E 004°53'0 0.0
2016-Aug-25 16:33N 43°26' E 004°53'0 0.0
2016-Aug-25 15:33N 43°26' E 004°53'0 0.0
2016-Aug-25 14:27N 43°26' E 004°53'0 0.2
2016-Aug-25 13:33N 43°25' E 004°53'2 2.0
2016-Aug-25 12:33N 43°25' E 004°56'0 0.0
2016-Aug-25 11:33N 43°25' E 004°56'0 0.0
2016-Aug-25 10:24N 43°25' E 004°56'0 0.0
2016-Aug-25 09:30N 43°25' E 004°56'0 0.1
2016-Aug-25 08:33N 43°25' E 004°56'0 0.0
2016-Aug-25 07:33N 43°25' E 004°56'0 0.0
2016-Aug-25 06:31N 43°25' E 004°56'0 0.0
2016-Aug-25 04:31N 43°25' E 004°56'0 0.0
2016-Aug-25 03:31N 43°25' E 004°56'0 0.0
2016-Aug-25 02:31N 43°25' E 004°56'0 0.0
2016-Aug-25 01:31N 43°25' E 004°56'0 0.0
2016-Aug-25 00:31N 43°25' E 004°56'0 0.0
2016-Aug-24 23:31N 43°25' E 004°56'0 0.0
2016-Aug-24 22:31N 43°25' E 004°56'0 0.0
2016-Aug-24 21:28N 43°25' E 004°56'0 0.0
2016-Aug-24 20:31N 43°25' E 004°56'0 0.0
2016-Aug-24 19:31N 43°25' E 004°56'0 0.0
2016-Aug-24 18:31N 43°25' E 004°56'0 0.0
2016-Aug-24 17:28N 43°25' E 004°56'0 0.0
2016-Aug-24 16:28N 43°25' E 004°56'0 0.0
2016-Aug-24 15:31N 43°25' E 004°56'0 0.0
2016-Aug-24 14:31N 43°25' E 004°56'0 0.0
2016-Aug-24 13:25N 43°25' E 004°56'0 0.0
2016-Aug-24 12:31N 43°25' E 004°56'0 0.0
2016-Aug-24 11:31N 43°25' E 004°56'0 0.0
2016-Aug-24 10:31N 43°25' E 004°56'0 0.0
2016-Aug-24 09:31N 43°25' E 004°56'0 0.1
2016-Aug-24 08:28N 43°25' E 004°56'0 0.0
2016-Aug-24 07:31N 43°25' E 004°56'0 0.0
2016-Aug-24 06:31N 43°25' E 004°56'0 0.0
2016-Aug-24 04:31N 43°25' E 004°56'0 0.0
2016-Aug-24 03:31N 43°25' E 004°56'0 0.0
2016-Aug-24 02:31N 43°25' E 004°56'0 0.0
2016-Aug-24 01:31N 43°25' E 004°56'0 0.0
2016-Aug-24 00:31N 43°25' E 004°56'0 0.0
2016-Aug-23 23:28N 43°25' E 004°56'0 0.0
2016-Aug-23 22:31N 43°25' E 004°56'0 0.0
2016-Aug-23 21:31N 43°25' E 004°56'0 0.0
2016-Aug-23 20:31N 43°25' E 004°56'0 0.1
2016-Aug-23 19:33N 43°25' E 004°56'0 0.3
2016-Aug-23 18:33N 43°25' E 004°56'4 3.5
2016-Aug-23 17:33N 43°24' E 005°01'0 0.0
2016-Aug-23 16:34N 43°24' E 005°01'0 0.0
2016-Aug-23 15:33N 43°24' E 005°01'0 0.0
2016-Aug-23 14:33N 43°24' E 005°01'0 0.0
2016-Aug-23 13:33N 43°24' E 005°01'0 0.0
2016-Aug-23 12:33N 43°24' E 005°01'0 0.0
2016-Aug-23 11:33N 43°24' E 005°01'0 0.0
2016-Aug-23 10:34N 43°24' E 005°01'0 0.0
2016-Aug-23 09:34N 43°24' E 005°01'0 0.0
2016-Aug-23 08:33N 43°24' E 005°01'0 0.0
2016-Aug-23 07:33N 43°24' E 005°01'0 0.0
2016-Aug-23 06:33N 43°24' E 005°01'0 0.0
2016-Aug-23 05:33N 43°24' E 005°01'0 0.0
2016-Aug-23 04:33N 43°24' E 005°01'0 0.0
2016-Aug-23 03:33N 43°24' E 005°01'0 0.0
2016-Aug-23 02:33N 43°24' E 005°01'0 0.0
2016-Aug-23 01:34N 43°24' E 005°01'0 0.0
2016-Aug-23 00:33N 43°24' E 005°01'0 0.0
2016-Aug-22 23:33N 43°24' E 005°01'0 0.0
2016-Aug-22 22:34N 43°24' E 005°01'0 0.0
2016-Aug-22 21:33N 43°24' E 005°01'0 0.0
2016-Aug-22 20:34N 43°24' E 005°01'0 0.0
2016-Aug-22 19:33N 43°24' E 005°01'0 0.0
2016-Aug-22 18:34N 43°24' E 005°01'0 0.0
2016-Aug-22 17:33N 43°24' E 005°01'0 0.0
2016-Aug-22 16:33N 43°24' E 005°01'0 0.0
2016-Aug-22 15:33N 43°24' E 005°01'0 0.0
2016-Aug-22 14:33N 43°24' E 005°01'0 0.0
2016-Aug-22 13:34N 43°24' E 005°01'0 0.0
2016-Aug-22 12:33N 43°24' E 005°01'0 0.0
2016-Aug-22 11:33N 43°24' E 005°01'0 0.0
2016-Aug-22 10:33N 43°24' E 005°01'0 0.0
2016-Aug-22 09:33N 43°24' E 005°01'0 0.0
2016-Aug-22 08:33N 43°24' E 005°01'0 0.0
2016-Aug-22 07:33N 43°24' E 005°01'0 0.0
2016-Aug-22 06:33N 43°24' E 005°01'0 0.0
2016-Aug-22 05:33N 43°24' E 005°01'0 0.0
2016-Aug-22 04:33N 43°24' E 005°01'0 0.0
2016-Aug-22 03:33N 43°24' E 005°01'0 0.0
2016-Aug-22 02:33N 43°24' E 005°01'0 0.0
2016-Aug-22 01:33N 43°24' E 005°01'0 0.0
2016-Aug-22 00:33N 43°24' E 005°01'0 0.0
2016-Aug-21 23:34N 43°24' E 005°01'0 0.0
2016-Aug-21 22:33N 43°24' E 005°01'0 0.0
2016-Aug-21 21:33N 43°24' E 005°01'0 0.0
2016-Aug-21 20:33N 43°24' E 005°01'0 0.0
2016-Aug-21 19:34N 43°24' E 005°01'0 0.0
2016-Aug-21 18:34N 43°24' E 005°01'0 0.0
2016-Aug-21 17:34N 43°24' E 005°01'0 0.0
2016-Aug-21 16:33N 43°24' E 005°01'0 0.0
2016-Aug-21 15:33N 43°24' E 005°01'0 0.0
2016-Aug-21 14:33N 43°24' E 005°01'0 0.0
2016-Aug-21 13:33N 43°24' E 005°01'0 0.0
2016-Aug-21 12:33N 43°24' E 005°01'0 0.0
2016-Aug-21 11:33N 43°24' E 005°01'0 0.0
2016-Aug-21 10:33N 43°24' E 005°01'0 0.0
2016-Aug-21 09:33N 43°24' E 005°01'0 0.0
2016-Aug-21 08:34N 43°24' E 005°01'0 0.0
2016-Aug-21 07:33N 43°24' E 005°01'0 0.0
2016-Aug-21 06:34N 43°24' E 005°01'0 0.0
2016-Aug-21 05:33N 43°24' E 005°01'0 0.0
2016-Aug-21 04:33N 43°24' E 005°01'0 0.0
2016-Aug-21 03:33N 43°24' E 005°01'0 0.0
2016-Aug-21 02:33N 43°24' E 005°01'0 0.0
2016-Aug-21 01:34N 43°24' E 005°01'0 0.0
2016-Aug-21 00:33N 43°24' E 005°01'0 0.0
2016-Aug-20 23:34N 43°24' E 005°01'0 0.0
2016-Aug-20 22:33N 43°24' E 005°01'0 0.0
2016-Aug-20 21:34N 43°24' E 005°01'0 0.0
2016-Aug-20 20:33N 43°24' E 005°01'0 0.0
2016-Aug-20 19:33N 43°24' E 005°01'0 0.0
2016-Aug-20 18:33N 43°24' E 005°01'0 0.0
2016-Aug-20 17:33N 43°24' E 005°01'0 0.0
2016-Aug-20 16:33N 43°24' E 005°01'0 0.0
2016-Aug-20 15:33N 43°24' E 005°01'0 0.0
2016-Aug-20 14:33N 43°24' E 005°01'0 0.0
2016-Aug-20 13:33N 43°24' E 005°01'0 0.0
2016-Aug-20 12:33N 43°24' E 005°01'0 0.0
2016-Aug-20 11:34N 43°24' E 005°01'0 0.0
2016-Aug-20 10:34N 43°24' E 005°01'0 0.0
2016-Aug-20 09:33N 43°24' E 005°01'0 0.0
2016-Aug-20 08:34N 43°24' E 005°01'0 0.0
2016-Aug-20 07:34N 43°24' E 005°01'0 0.0
2016-Aug-20 06:33N 43°24' E 005°01'0 0.0
2016-Aug-20 05:33N 43°24' E 005°01'0 0.0
2016-Aug-20 04:34N 43°24' E 005°01'0 0.0
2016-Aug-20 03:33N 43°24' E 005°01'0 0.0
2016-Aug-20 02:33N 43°24' E 005°01'0 0.0
2016-Aug-20 01:33N 43°24' E 005°01'0 0.0
2016-Aug-20 00:34N 43°24' E 005°01'0 0.0
2016-Aug-19 23:33N 43°24' E 005°01'0 0.0
2016-Aug-19 22:33N 43°24' E 005°01'0 0.0
2016-Aug-19 21:33N 43°24' E 005°01'5 4.6
2016-Aug-19 20:34N 43°20' E 004°59'9 8.9
2016-Aug-19 19:33N 43°11' E 005°03'1111.2
2016-Aug-19 18:33N 43°02' E 004°53'1111.1
2016-Aug-19 17:33N 42°54' E 004°44'2211.1
2016-Aug-19 15:33N 42°36' E 004°26'1210.2
2016-Aug-19 14:21N 42°26' E 004°16'810.0
2016-Aug-19 13:33N 42°20' E 004°09'1010.1
2016-Aug-19 12:33N 42°11' E 004°02'4210.3
2016-Aug-19 08:31N 41°38' E 003°28'10 9.9
2016-Aug-19 07:33N 41°30' E 003°21'10 9.9
2016-Aug-19 06:33N 41°22' E 003°13'  

Dump ship's entire track history